sensor_id;sensor_type;location;lat;lon;timestamp;pressure;altitude;pressure_sealevel;temperature;humidity
19795;BME280;10057;59.402;17.866;2023-03-02T00:04:46;102213.69;;;4.26;63.09
19795;BME280;10057;59.402;17.866;2023-03-02T00:07:16;102213.66;;;4.22;63.34
19795;BME280;10057;59.402;17.866;2023-03-02T00:09:44;102209.22;;;4.18;63.44
19795;BME280;10057;59.402;17.866;2023-03-02T00:12:12;102215.28;;;4.12;63.71
19795;BME280;10057;59.402;17.866;2023-03-02T00:14:39;102215.22;;;4.09;63.31
19795;BME280;10057;59.402;17.866;2023-03-02T00:17:05;102214.31;;;4.06;63.60
19795;BME280;10057;59.402;17.866;2023-03-02T00:19:33;102216.00;;;4.02;63.61
19795;BME280;10057;59.402;17.866;2023-03-02T00:22:02;102216.00;;;4.00;63.62
19795;BME280;10057;59.402;17.866;2023-03-02T00:24:29;102223.81;;;3.96;63.52
19795;BME280;10057;59.402;17.866;2023-03-02T00:26:56;102204.53;;;3.94;63.71
19795;BME280;10057;59.402;17.866;2023-03-02T00:29:23;102211.50;;;3.92;63.91
19795;BME280;10057;59.402;17.866;2023-03-02T00:31:49;102221.97;;;3.89;64.09
19795;BME280;10057;59.402;17.866;2023-03-02T00:34:16;102221.03;;;3.85;63.93
19795;BME280;10057;59.402;17.866;2023-03-02T00:36:43;102231.50;;;3.82;64.29
19795;BME280;10057;59.402;17.866;2023-03-02T00:39:10;102221.81;;;3.78;64.51
19795;BME280;10057;59.402;17.866;2023-03-02T00:41:36;102213.88;;;3.75;64.29
19795;BME280;10057;59.402;17.866;2023-03-02T00:44:03;102217.38;;;3.75;64.46
19795;BME280;10057;59.402;17.866;2023-03-02T00:46:30;102212.09;;;3.71;64.45
19795;BME280;10057;59.402;17.866;2023-03-02T00:48:57;102216.38;;;3.66;64.28
19795;BME280;10057;59.402;17.866;2023-03-02T00:51:24;102208.44;;;3.61;64.63
19795;BME280;10057;59.402;17.866;2023-03-02T00:53:51;102205.72;;;3.55;64.61
19795;BME280;10057;59.402;17.866;2023-03-02T00:56:17;102200.41;;;3.49;64.77
19795;BME280;10057;59.402;17.866;2023-03-02T00:58:44;102201.19;;;3.45;64.91
19795;BME280;10057;59.402;17.866;2023-03-02T01:01:12;102205.50;;;3.40;64.89
19795;BME280;10057;59.402;17.866;2023-03-02T01:03:39;102206.31;;;3.37;65.07
19795;BME280;10057;59.402;17.866;2023-03-02T01:06:13;102199.28;;;3.33;64.90
19795;BME280;10057;59.402;17.866;2023-03-02T01:08:40;102207.91;;;3.27;65.08
19795;BME280;10057;59.402;17.866;2023-03-02T01:11:21;102193.84;;;3.22;65.13
19795;BME280;10057;59.402;17.866;2023-03-02T01:13:48;102197.31;;;3.21;65.15
19795;BME280;10057;59.402;17.866;2023-03-02T01:16:16;102193.81;;;3.19;65.39
19795;BME280;10057;59.402;17.866;2023-03-02T01:18:43;102192.88;;;3.17;65.30
19795;BME280;10057;59.402;17.866;2023-03-02T01:21:13;102198.06;;;3.14;65.55
19795;BME280;10057;59.402;17.866;2023-03-02T01:23:40;102197.16;;;3.11;65.74
19795;BME280;10057;59.402;17.866;2023-03-02T01:26:07;102196.22;;;3.07;65.63
19795;BME280;10057;59.402;17.866;2023-03-02T01:28:34;102181.28;;;3.03;65.88
19795;BME280;10057;59.402;17.866;2023-03-02T01:31:01;102185.66;;;3.01;65.82
19795;BME280;10057;59.402;17.866;2023-03-02T01:33:30;102188.22;;;2.99;65.98
19795;BME280;10057;59.402;17.866;2023-03-02T01:35:57;102189.00;;;2.94;66.44
19795;BME280;10057;59.402;17.866;2023-03-02T01:38:24;102182.81;;;2.90;66.35
19795;BME280;10057;59.402;17.866;2023-03-02T01:40:51;102185.38;;;2.87;66.57
19795;BME280;10057;59.402;17.866;2023-03-02T01:43:18;102181.88;;;2.87;66.44
19795;BME280;10057;59.402;17.866;2023-03-02T01:45:52;102172.25;;;2.85;66.58
19795;BME280;10057;59.402;17.866;2023-03-02T01:48:47;102171.41;;;2.87;66.38
19795;BME280;10057;59.402;17.866;2023-03-02T01:51:18;102166.16;;;2.87;66.64
19795;BME280;10057;59.402;17.866;2023-03-02T01:53:47;102164.44;;;2.89;66.64
19795;BME280;10057;59.402;17.866;2023-03-02T01:56:19;102166.25;;;2.91;66.56
19795;BME280;10057;59.402;17.866;2023-03-02T01:58:51;102164.50;;;2.92;66.39
19795;BME280;10057;59.402;17.866;2023-03-02T02:01:18;102174.13;;;2.91;66.00
19795;BME280;10057;59.402;17.866;2023-03-02T02:03:48;102167.13;;;2.93;66.43
19795;BME280;10057;59.402;17.866;2023-03-02T02:08:45;102173.25;;;2.91;66.41
19795;BME280;10057;59.402;17.866;2023-03-02T02:11:12;102174.94;;;2.89;66.42
19795;BME280;10057;59.402;17.866;2023-03-02T02:13:39;102172.25;;;2.85;66.31
19795;BME280;10057;59.402;17.866;2023-03-02T02:16:06;102181.75;;;2.77;66.44
19795;BME280;10057;59.402;17.866;2023-03-02T02:18:35;102172.03;;;2.72;66.50
19795;BME280;10057;59.402;17.866;2023-03-02T02:21:03;102176.38;;;2.71;66.43
19795;BME280;10057;59.402;17.866;2023-03-02T02:24:06;102177.19;;;2.69;66.84
19795;BME280;10057;59.402;17.866;2023-03-02T02:26:44;102171.84;;;2.63;66.44
19795;BME280;10057;59.402;17.866;2023-03-02T02:29:25;102168.22;;;2.56;66.68
19795;BME280;10057;59.402;17.866;2023-03-02T02:32:16;102167.22;;;2.49;67.17
19795;BME280;10057;59.402;17.866;2023-03-02T02:34:50;102175.00;;;2.43;67.11
19795;BME280;10057;59.402;17.866;2023-03-02T02:37:47;102172.34;;;2.42;67.38
19795;BME280;10057;59.402;17.866;2023-03-02T02:43:12;102177.44;;;2.34;67.57
19795;BME280;10057;59.402;17.866;2023-03-02T02:45:39;102177.38;;;2.32;67.73
19795;BME280;10057;59.402;17.866;2023-03-02T02:48:17;102180.00;;;2.32;68.00
19795;BME280;10057;59.402;17.866;2023-03-02T02:50:45;102184.34;;;2.30;67.56
19795;BME280;10057;59.402;17.866;2023-03-02T02:53:19;102188.66;;;2.28;67.71
19795;BME280;10057;59.402;17.866;2023-03-02T02:55:48;102180.75;;;2.25;67.82
19795;BME280;10057;59.402;17.866;2023-03-02T02:58:32;102171.91;;;2.20;68.12
19795;BME280;10057;59.402;17.866;2023-03-02T03:01:00;102173.63;;;2.18;67.95
19795;BME280;10057;59.402;17.866;2023-03-02T03:03:30;102170.09;;;2.16;67.92
19795;BME280;10057;59.402;17.866;2023-03-02T03:06:00;102170.91;;;2.12;68.07
19795;BME280;10057;59.402;17.866;2023-03-02T03:11:14;102163.72;;;2.02;68.37
19795;BME280;10057;59.402;17.866;2023-03-02T03:13:42;102163.66;;;2.00;68.03
19795;BME280;10057;59.402;17.866;2023-03-02T03:16:13;102161.91;;;1.99;68.22
19795;BME280;10057;59.402;17.866;2023-03-02T03:18:47;102161.03;;;2.00;68.33
19795;BME280;10057;59.402;17.866;2023-03-02T03:21:16;102156.63;;;1.98;68.70
19795;BME280;10057;59.402;17.866;2023-03-02T03:23:46;102152.25;;;1.97;68.51
19795;BME280;10057;59.402;17.866;2023-03-02T03:26:12;102146.94;;;1.94;68.54
19795;BME280;10057;59.402;17.866;2023-03-02T03:28:39;102134.72;;;1.93;68.89
19795;BME280;10057;59.402;17.866;2023-03-02T03:31:06;102138.22;;;1.93;68.87
19795;BME280;10057;59.402;17.866;2023-03-02T03:33:33;102133.00;;;1.95;69.14
19795;BME280;10057;59.402;17.866;2023-03-02T03:35:59;102129.53;;;1.96;69.07
19795;BME280;10057;59.402;17.866;2023-03-02T03:38:26;102126.88;;;1.94;68.94
19795;BME280;10057;59.402;17.866;2023-03-02T03:40:53;102132.09;;;1.94;68.59
19795;BME280;10057;59.402;17.866;2023-03-02T03:43:20;102117.25;;;1.92;69.00
19795;BME280;10057;59.402;17.866;2023-03-02T03:45:46;102119.81;;;1.90;68.80
19795;BME280;10057;59.402;17.866;2023-03-02T03:48:13;102118.09;;;1.90;68.80
19795;BME280;10057;59.402;17.866;2023-03-02T03:50:40;102115.41;;;1.87;69.01
19795;BME280;10057;59.402;17.866;2023-03-02T03:53:06;102101.34;;;1.82;68.98
19795;BME280;10057;59.402;17.866;2023-03-02T03:55:33;102100.34;;;1.77;69.01
19795;BME280;10057;59.402;17.866;2023-03-02T03:58:00;102105.56;;;1.76;68.96
19795;BME280;10057;59.402;17.866;2023-03-02T04:00:27;102112.50;;;1.74;69.44
19795;BME280;10057;59.402;17.866;2023-03-02T04:02:54;102108.09;;;1.71;69.78
19795;BME280;10057;59.402;17.866;2023-03-02T04:05:20;102101.13;;;1.72;69.73
19795;BME280;10057;59.402;17.866;2023-03-02T04:07:47;102089.78;;;1.71;69.69
19795;BME280;10057;59.402;17.866;2023-03-02T04:10:14;102086.25;;;1.71;70.13
19795;BME280;10057;59.402;17.866;2023-03-02T04:12:41;102082.78;;;1.70;69.81
19795;BME280;10057;59.402;17.866;2023-03-02T04:15:11;102083.63;;;1.69;70.16
19795;BME280;10057;59.402;17.866;2023-03-02T04:17:39;102081.88;;;1.70;70.20
19795;BME280;10057;59.402;17.866;2023-03-02T04:20:06;102081.88;;;1.68;69.86
19795;BME280;10057;59.402;17.866;2023-03-02T04:22:34;102081.94;;;1.71;70.17
19795;BME280;10057;59.402;17.866;2023-03-02T04:25:01;102067.13;;;1.72;70.01
19795;BME280;10057;59.402;17.866;2023-03-02T04:27:28;102078.47;;;1.72;70.00
19795;BME280;10057;59.402;17.866;2023-03-02T04:29:54;102078.41;;;1.71;69.80
19795;BME280;10057;59.402;17.866;2023-03-02T04:32:21;102081.03;;;1.71;69.71
19795;BME280;10057;59.402;17.866;2023-03-02T04:34:48;102080.16;;;1.70;69.91
19795;BME280;10057;59.402;17.866;2023-03-02T04:37:14;102079.28;;;1.70;69.95
19795;BME280;10057;59.402;17.866;2023-03-02T04:39:41;102080.13;;;1.69;69.90
19795;BME280;10057;59.402;17.866;2023-03-02T04:42:10;102080.09;;;1.67;69.96
19795;BME280;10057;59.402;17.866;2023-03-02T04:44:36;102086.16;;;1.64;70.25
19795;BME280;10057;59.402;17.866;2023-03-02T04:47:03;102083.47;;;1.61;70.02
19795;BME280;10057;59.402;17.866;2023-03-02T04:49:30;102080.81;;;1.60;69.98
19795;BME280;10057;59.402;17.866;2023-03-02T04:51:56;102078.19;;;1.60;69.90
19795;BME280;10057;59.402;17.866;2023-03-02T04:54:25;102071.22;;;1.59;70.45
19795;BME280;10057;59.402;17.866;2023-03-02T04:56:53;102072.06;;;1.58;70.25
19795;BME280;10057;59.402;17.866;2023-03-02T04:59:26;102073.75;;;1.54;70.51
19795;BME280;10057;59.402;17.866;2023-03-02T05:01:55;102072.78;;;1.51;70.33
19795;BME280;10057;59.402;17.866;2023-03-02T05:04:22;102065.72;;;1.47;70.40
19795;BME280;10057;59.402;17.866;2023-03-02T05:06:49;102060.47;;;1.45;70.52
19795;BME280;10057;59.402;17.866;2023-03-02T05:09:16;102058.72;;;1.46;70.63
19795;BME280;10057;59.402;17.866;2023-03-02T05:11:43;102067.50;;;1.48;70.86
19795;BME280;10057;59.402;17.866;2023-03-02T05:14:11;102061.34;;;1.46;70.24
19795;BME280;10057;59.402;17.866;2023-03-02T05:16:40;102056.91;;;1.41;70.74
19795;BME280;10057;59.402;17.866;2023-03-02T05:19:08;102055.13;;;1.40;70.59
19795;BME280;10057;59.402;17.866;2023-03-02T05:21:36;102050.81;;;1.42;70.47
19795;BME280;10057;59.402;17.866;2023-03-02T05:24:03;102044.69;;;1.40;70.32
19795;BME280;10057;59.402;17.866;2023-03-02T05:26:30;102040.25;;;1.38;70.51
19795;BME280;10057;59.402;17.866;2023-03-02T05:28:58;102039.31;;;1.34;70.75
19795;BME280;10057;59.402;17.866;2023-03-02T05:31:37;102038.38;;;1.31;70.55
19795;BME280;10057;59.402;17.866;2023-03-02T05:34:07;102031.34;;;1.28;70.71
19795;BME280;10057;59.402;17.866;2023-03-02T05:36:35;102039.09;;;1.25;70.48
19795;BME280;10057;59.402;17.866;2023-03-02T05:39:03;102038.16;;;1.22;70.70
19795;BME280;10057;59.402;17.866;2023-03-02T05:41:30;102025.94;;;1.21;70.69
19795;BME280;10057;59.402;17.866;2023-03-02T05:43:57;102029.38;;;1.19;70.58
19795;BME280;10057;59.402;17.866;2023-03-02T05:46:24;102036.41;;;1.21;70.71
19795;BME280;10057;59.402;17.866;2023-03-02T05:48:51;102045.03;;;1.16;70.90
19795;BME280;10057;59.402;17.866;2023-03-02T05:51:18;102037.94;;;1.12;71.04
19795;BME280;10057;59.402;17.866;2023-03-02T05:53:44;102037.06;;;1.12;70.94
19795;BME280;10057;59.402;17.866;2023-03-02T05:56:12;102033.56;;;1.11;70.76
19795;BME280;10057;59.402;17.866;2023-03-02T05:58:38;102039.69;;;1.12;71.29
19795;BME280;10057;59.402;17.866;2023-03-02T06:01:09;102031.78;;;1.09;70.96
19795;BME280;10057;59.402;17.866;2023-03-02T06:03:40;102047.44;;;1.09;71.04
19795;BME280;10057;59.402;17.866;2023-03-02T06:06:07;102040.47;;;1.08;70.90
19795;BME280;10057;59.402;17.866;2023-03-02T06:08:34;102042.28;;;1.10;71.07
19795;BME280;10057;59.402;17.866;2023-03-02T06:11:06;102047.66;;;1.18;70.79
19795;BME280;10057;59.402;17.866;2023-03-02T06:13:34;102049.41;;;1.19;70.80
19795;BME280;10057;59.402;17.866;2023-03-02T06:16:00;102052.03;;;1.17;70.77
19795;BME280;10057;59.402;17.866;2023-03-02T06:18:27;102038.84;;;1.13;70.86
19795;BME280;10057;59.402;17.866;2023-03-02T06:20:54;102037.06;;;1.12;70.79
19795;BME280;10057;59.402;17.866;2023-03-02T06:23:21;102030.09;;;1.11;70.64
19795;BME280;10057;59.402;17.866;2023-03-02T06:25:48;102032.63;;;1.08;70.68
19795;BME280;10057;59.402;17.866;2023-03-02T06:28:15;102030.81;;;1.04;70.52
19795;BME280;10057;59.402;17.866;2023-03-02T06:30:42;102029.88;;;1.02;70.80
19795;BME280;10057;59.402;17.866;2023-03-02T06:33:08;102044.66;;;1.00;70.91
19795;BME280;10057;59.402;17.866;2023-03-02T06:35:35;102044.59;;;0.98;70.74
19795;BME280;10057;59.402;17.866;2023-03-02T06:38:02;102040.25;;;0.99;70.94
19795;BME280;10057;59.402;17.866;2023-03-02T06:40:29;102030.59;;;0.94;71.17
19795;BME280;10057;59.402;17.866;2023-03-02T06:42:56;102038.41;;;0.94;71.19
19795;BME280;10057;59.402;17.866;2023-03-02T06:45:27;102028.03;;;0.96;71.03
19795;BME280;10057;59.402;17.866;2023-03-02T06:47:54;102023.69;;;0.98;71.11
19795;BME280;10057;59.402;17.866;2023-03-02T06:50:21;102026.44;;;1.03;71.19
19795;BME280;10057;59.402;17.866;2023-03-02T06:52:48;102015.97;;;1.03;71.18
19795;BME280;10057;59.402;17.866;2023-03-02T06:55:14;102015.13;;;1.04;71.02
19795;BME280;10057;59.402;17.866;2023-03-02T06:57:41;102016.88;;;1.05;71.08
19795;BME280;10057;59.402;17.866;2023-03-02T07:00:10;102014.34;;;1.08;71.18
19795;BME280;10057;59.402;17.866;2023-03-02T07:02:43;102010.91;;;1.10;70.96
19795;BME280;10057;59.402;17.866;2023-03-02T07:05:11;102013.66;;;1.16;71.21
19795;BME280;10057;59.402;17.866;2023-03-02T07:07:38;102014.56;;;1.18;71.06
19795;BME280;10057;59.402;17.866;2023-03-02T07:10:05;102018.94;;;1.19;70.85
19795;BME280;10057;59.402;17.866;2023-03-02T07:12:32;102007.66;;;1.22;70.94
19795;BME280;10057;59.402;17.866;2023-03-02T07:14:59;102010.41;;;1.28;70.94
19795;BME280;10057;59.402;17.866;2023-03-02T07:17:26;102013.97;;;1.32;71.03
19795;BME280;10057;59.402;17.866;2023-03-02T07:19:53;102010.63;;;1.37;70.87
19795;BME280;10057;59.402;17.866;2023-03-02T07:22:20;102001.13;;;1.42;71.03
19795;BME280;10057;59.402;17.866;2023-03-02T07:24:46;102002.09;;;1.48;70.71
19795;BME280;10057;59.402;17.866;2023-03-02T07:27:13;102002.19;;;1.52;70.84
19795;BME280;10057;59.402;17.866;2023-03-02T07:29:40;101992.72;;;1.57;70.78
19795;BME280;10057;59.402;17.866;2023-03-02T07:32:06;101988.44;;;1.62;70.64
19795;BME280;10057;59.402;17.866;2023-03-02T07:34:36;101985.91;;;1.67;70.70
19795;BME280;10057;59.402;17.866;2023-03-02T07:37:04;101978.97;;;1.71;70.65
19795;BME280;10057;59.402;17.866;2023-03-02T07:39:31;101966.91;;;1.77;70.60
19795;BME280;10057;59.402;17.866;2023-03-02T07:41:59;101968.75;;;1.81;70.45
19795;BME280;10057;59.402;17.866;2023-03-02T07:44:27;101974.94;;;1.88;70.46
19795;BME280;10057;59.402;17.866;2023-03-02T07:46:54;101970.69;;;1.93;70.18
19795;BME280;10057;59.402;17.866;2023-03-02T07:49:21;101969.88;;;1.97;70.28
19795;BME280;10057;59.402;17.866;2023-03-02T07:51:47;101966.50;;;2.04;69.73
19795;BME280;10057;59.402;17.866;2023-03-02T07:54:14;101961.31;;;2.07;69.57
19795;BME280;10057;59.402;17.866;2023-03-02T07:56:41;101962.31;;;2.14;69.38
19795;BME280;10057;59.402;17.866;2023-03-02T07:59:07;101957.19;;;2.20;69.46
19795;BME280;10057;59.402;17.866;2023-03-02T08:01:34;101960.75;;;2.25;69.59
19795;BME280;10057;59.402;17.866;2023-03-02T08:04:01;101957.34;;;2.29;69.48
19795;BME280;10057;59.402;17.866;2023-03-02T08:06:28;101957.38;;;2.32;68.83
19795;BME280;10057;59.402;17.866;2023-03-02T08:08:55;101949.56;;;2.35;69.08
19795;BME280;10057;59.402;17.866;2023-03-02T08:11:22;101941.81;;;2.40;68.79
19795;BME280;10057;59.402;17.866;2023-03-02T08:13:49;101949.72;;;2.45;68.62
19795;BME280;10057;59.402;17.866;2023-03-02T08:16:16;101933.19;;;2.49;68.17
19795;BME280;10057;59.402;17.866;2023-03-02T08:18:43;101930.59;;;2.52;68.12
19795;BME280;10057;59.402;17.866;2023-03-02T08:21:12;101937.66;;;2.56;67.61
19795;BME280;10057;59.402;17.866;2023-03-02T08:23:39;101919.41;;;2.60;67.98
19795;BME280;10057;59.402;17.866;2023-03-02T08:26:06;101917.72;;;2.66;67.83
19795;BME280;10057;59.402;17.866;2023-03-02T08:28:33;101918.63;;;2.69;67.31
19795;BME280;10057;59.402;17.866;2023-03-02T08:31:01;101923.09;;;2.76;67.23
19795;BME280;10057;59.402;17.866;2023-03-02T08:33:28;101916.19;;;2.81;67.08
19795;BME280;10057;59.402;17.866;2023-03-02T08:35:58;101907.53;;;2.89;66.91
19795;BME280;10057;59.402;17.866;2023-03-02T08:38:25;101902.44;;;2.98;66.74
19795;BME280;10057;59.402;17.866;2023-03-02T08:40:52;101905.13;;;3.05;66.18
19795;BME280;10057;59.402;17.866;2023-03-02T08:43:20;101896.47;;;3.13;66.05
19795;BME280;10057;59.402;17.866;2023-03-02T08:45:54;101887.84;;;3.23;65.95
19795;BME280;10057;59.402;17.866;2023-03-02T08:48:25;101888.84;;;3.32;65.71
19795;BME280;10057;59.402;17.866;2023-03-02T08:51:08;101886.31;;;3.43;65.97
19795;BME280;10057;59.402;17.866;2023-03-02T08:53:37;101877.75;;;3.60;66.54
19795;BME280;10057;59.402;17.866;2023-03-02T08:58:42;101884.22;;;3.97;66.37
19795;BME280;10057;59.402;17.866;2023-03-02T09:01:29;101873.72;;;4.03;65.09
19795;BME280;10057;59.402;17.866;2023-03-02T09:03:58;101863.25;;;4.06;64.33
19795;BME280;10057;59.402;17.866;2023-03-02T09:06:28;101858.03;;;4.11;63.80
19795;BME280;10057;59.402;17.866;2023-03-02T09:08:55;101859.84;;;4.18;63.90
19795;BME280;10057;59.402;17.866;2023-03-02T09:11:22;101856.41;;;4.28;63.23
19795;BME280;10057;59.402;17.866;2023-03-02T09:13:49;101859.94;;;4.36;62.78
19795;BME280;10057;59.402;17.866;2023-03-02T09:16:16;101858.25;;;4.46;62.20
19795;BME280;10057;59.402;17.866;2023-03-02T09:18:43;101853.91;;;4.49;61.46
19795;BME280;10057;59.402;17.866;2023-03-02T09:21:09;101857.41;;;4.55;61.74
19795;BME280;10057;59.402;17.866;2023-03-02T09:23:36;101857.41;;;4.55;60.47
19795;BME280;10057;59.402;17.866;2023-03-02T09:26:03;101850.47;;;4.58;60.84
19795;BME280;10057;59.402;17.866;2023-03-02T09:28:30;101839.97;;;4.63;60.51
19795;BME280;10057;59.402;17.866;2023-03-02T09:30:59;101844.38;;;4.68;60.27
19795;BME280;10057;59.402;17.866;2023-03-02T09:33:26;101838.25;;;4.72;59.59
19795;BME280;10057;59.402;17.866;2023-03-02T09:35:53;101835.63;;;4.82;59.80
19795;BME280;10057;59.402;17.866;2023-03-02T09:38:20;101822.53;;;4.94;59.46
19795;BME280;10057;59.402;17.866;2023-03-02T09:46:34;101808.59;;;5.24;58.01
19795;BME280;10057;59.402;17.866;2023-03-02T09:51:46;101791.94;;;5.42;58.32
19795;BME280;10057;59.402;17.866;2023-03-02T09:54:21;101793.69;;;5.52;58.80
19795;BME280;10057;59.402;17.866;2023-03-02T09:56:54;101790.19;;;5.62;58.13
19795;BME280;10057;59.402;17.866;2023-03-02T09:59:30;101780.53;;;5.70;58.16
19795;BME280;10057;59.402;17.866;2023-03-02T10:02:40;101783.16;;;5.80;56.72
19795;BME280;10057;59.402;17.866;2023-03-02T10:05:23;101770.84;;;5.88;57.40
19795;BME280;10057;59.402;17.866;2023-03-02T10:07:50;101782.31;;;5.99;56.93
19795;BME280;10057;59.402;17.866;2023-03-02T10:13:20;101776.13;;;6.12;55.26
19795;BME280;10057;59.402;17.866;2023-03-02T10:21:38;101761.16;;;6.24;55.15
19795;BME280;10057;59.402;17.866;2023-03-02T10:26:58;101752.31;;;6.46;53.01
19795;BME280;10057;59.402;17.866;2023-03-02T10:32:24;101749.56;;;6.63;53.21
19795;BME280;10057;59.402;17.866;2023-03-02T10:34:53;101746.91;;;6.74;51.78
19795;BME280;10057;59.402;17.866;2023-03-02T10:37:23;101738.94;;;6.81;51.77
19795;BME280;10057;59.402;17.866;2023-03-02T10:39:51;101738.88;;;6.89;51.81
19795;BME280;10057;59.402;17.866;2023-03-02T10:42:37;101732.69;;;6.96;51.17
19795;BME280;10057;59.402;17.866;2023-03-02T10:47:43;101724.69;;;7.04;50.34
19795;BME280;10057;59.402;17.866;2023-03-02T10:50:30;101723.81;;;7.06;49.99
19795;BME280;10057;59.402;17.866;2023-03-02T10:52:58;101718.50;;;7.09;50.30
19795;BME280;10057;59.402;17.866;2023-03-02T10:55:27;101708.81;;;7.15;49.84
19795;BME280;10057;59.402;17.866;2023-03-02T10:58:20;101693.75;;;7.24;49.22
19795;BME280;10057;59.402;17.866;2023-03-02T11:00:56;101688.41;;;7.35;49.06
19795;BME280;10057;59.402;17.866;2023-03-02T11:03:23;101682.16;;;7.44;48.11
19795;BME280;10057;59.402;17.866;2023-03-02T11:05:50;101683.88;;;7.49;47.51
19795;BME280;10057;59.402;17.866;2023-03-02T11:08:22;101680.25;;;7.59;48.11
19795;BME280;10057;59.402;17.866;2023-03-02T11:11:00;101682.75;;;7.73;48.34
19795;BME280;10057;59.402;17.866;2023-03-02T11:13:29;101676.41;;;7.88;48.53
19795;BME280;10057;59.402;17.866;2023-03-02T11:15:58;101670.09;;;8.00;48.36
19795;BME280;10057;59.402;17.866;2023-03-02T11:18:37;101671.72;;;8.13;48.46
19795;BME280;10057;59.402;17.866;2023-03-02T11:21:09;101674.22;;;8.25;48.43
19795;BME280;10057;59.402;17.866;2023-03-02T11:32:32;101649.34;;;8.40;46.45
19795;BME280;10057;59.402;17.866;2023-03-02T11:37:52;101627.34;;;8.37;46.35
19795;BME280;10057;59.402;17.866;2023-03-02T11:40:25;101625.53;;;8.43;46.57
19795;BME280;10057;59.402;17.866;2023-03-02T11:42:57;101631.59;;;8.50;46.37
19795;BME280;10057;59.402;17.866;2023-03-02T11:45:35;101624.56;;;8.47;45.67
19795;BME280;10057;59.402;17.866;2023-03-02T11:48:11;101614.97;;;8.42;46.27
19795;BME280;10057;59.402;17.866;2023-03-02T11:50:53;101615.88;;;8.39;45.69
19795;BME280;10057;59.402;17.866;2023-03-02T11:53:26;101611.47;;;8.37;45.83
19795;BME280;10057;59.402;17.866;2023-03-02T11:55:55;101609.78;;;8.32;45.48
19795;BME280;10057;59.402;17.866;2023-03-02T11:58:27;101623.94;;;8.28;45.70
19795;BME280;10057;59.402;17.866;2023-03-02T12:00:55;101607.25;;;8.25;45.42
19795;BME280;10057;59.402;17.866;2023-03-02T12:03:42;101608.19;;;8.21;45.27
19795;BME280;10057;59.402;17.866;2023-03-02T12:08:42;101590.72;;;8.11;45.23
19795;BME280;10057;59.402;17.866;2023-03-02T12:13:45;101578.47;;;8.03;45.43
19795;BME280;10057;59.402;17.866;2023-03-02T12:16:19;101576.69;;;8.04;45.47
19795;BME280;10057;59.402;17.866;2023-03-02T12:18:50;101572.28;;;8.04;45.58
19795;BME280;10057;59.402;17.866;2023-03-02T12:21:22;101555.53;;;8.07;45.39
19795;BME280;10057;59.402;17.866;2023-03-02T12:31:52;101542.16;;;8.18;45.19
19795;BME280;10057;59.402;17.866;2023-03-02T12:36:57;101542.91;;;8.26;45.42
19795;BME280;10057;59.402;17.866;2023-03-02T12:42:40;101534.00;;;8.31;44.34
19795;BME280;10057;59.402;17.866;2023-03-02T12:45:29;101521.66;;;8.32;45.04
19795;BME280;10057;59.402;17.866;2023-03-02T12:48:05;101519.84;;;8.34;44.59
19795;BME280;10057;59.402;17.866;2023-03-02T12:50:41;101519.78;;;8.40;44.57
19795;BME280;10057;59.402;17.866;2023-03-02T12:53:16;101502.94;;;8.47;43.88
19795;BME280;10057;59.402;17.866;2023-03-02T12:55:44;101499.22;;;8.58;44.04
19795;BME280;10057;59.402;17.866;2023-03-02T12:58:23;101495.56;;;8.65;43.56
19795;BME280;10057;59.402;17.866;2023-03-02T13:00:53;101485.72;;;8.76;43.52
19795;BME280;10057;59.402;17.866;2023-03-02T13:03:21;101468.78;;;8.85;43.77
19795;BME280;10057;59.402;17.866;2023-03-02T13:05:47;101476.59;;;8.92;42.49
19795;BME280;10057;59.402;17.866;2023-03-02T13:08:20;101461.47;;;8.97;42.50
19795;BME280;10057;59.402;17.866;2023-03-02T13:10:54;101456.91;;;9.06;42.98
19795;BME280;10057;59.402;17.866;2023-03-02T13:13:25;101446.19;;;9.12;42.12
19795;BME280;10057;59.402;17.866;2023-03-02T13:18:22;101437.09;;;9.25;42.43
19795;BME280;10057;59.402;17.866;2023-03-02T13:20:50;101429.06;;;9.30;42.18
19795;BME280;10057;59.402;17.866;2023-03-02T13:23:18;101418.31;;;9.37;42.58
19795;BME280;10057;59.402;17.866;2023-03-02T13:25:56;101412.91;;;9.42;42.10
19795;BME280;10057;59.402;17.866;2023-03-02T13:28:31;101417.31;;;9.43;42.32
19795;BME280;10057;59.402;17.866;2023-03-02T13:31:21;101416.44;;;9.42;42.15
19795;BME280;10057;59.402;17.866;2023-03-02T13:33:55;101411.19;;;9.39;41.80
19795;BME280;10057;59.402;17.866;2023-03-02T13:38:56;101409.47;;;9.38;41.50
19795;BME280;10057;59.402;17.866;2023-03-02T13:41:35;101397.22;;;9.34;40.80
19795;BME280;10057;59.402;17.866;2023-03-02T13:44:17;101399.06;;;9.29;40.96
19795;BME280;10057;59.402;17.866;2023-03-02T13:46:45;101394.75;;;9.25;40.84
19795;BME280;10057;59.402;17.866;2023-03-02T13:49:13;101396.63;;;9.20;40.63
19795;BME280;10057;59.402;17.866;2023-03-02T13:51:45;101386.13;;;9.15;40.21
19795;BME280;10057;59.402;17.866;2023-03-02T13:54:21;101390.59;;;9.12;41.09
19795;BME280;10057;59.402;17.866;2023-03-02T13:56:49;101384.56;;;9.05;41.12
19795;BME280;10057;59.402;17.866;2023-03-02T13:59:18;101380.31;;;8.98;41.47
19795;BME280;10057;59.402;17.866;2023-03-02T14:01:45;101376.03;;;8.92;41.13
19795;BME280;10057;59.402;17.866;2023-03-02T14:04:14;101374.38;;;8.87;41.31
19795;BME280;10057;59.402;17.866;2023-03-02T14:06:46;101364.78;;;8.81;41.77
19795;BME280;10057;59.402;17.866;2023-03-02T14:09:13;101372.75;;;8.78;42.11
19795;BME280;10057;59.402;17.866;2023-03-02T14:11:46;101367.53;;;8.75;41.76
19795;BME280;10057;59.402;17.866;2023-03-02T14:14:16;101367.56;;;8.73;42.25
19795;BME280;10057;59.402;17.866;2023-03-02T14:16:44;101371.09;;;8.74;42.21
19795;BME280;10057;59.402;17.866;2023-03-02T14:19:12;101363.16;;;8.74;41.65